createdAt,value
2023-02-22T00:00:10.925Z,90.0
2023-02-22T00:01:10.938Z,90.1
2023-02-22T00:02:11.671Z,90.0
2023-02-22T00:03:11.161Z,90.2
2023-02-22T00:04:10.953Z,90.1
2023-02-22T00:05:10.955Z,90.0
2023-02-22T00:06:10.960Z,89.7
2023-02-22T00:07:11.006Z,89.7
2023-02-22T00:08:10.968Z,89.9
2023-02-22T00:09:10.980Z,90.0
2023-02-22T00:10:10.985Z,90.1
2023-02-22T00:11:11.003Z,89.7
2023-02-22T00:12:11.011Z,89.6
2023-02-22T00:13:11.023Z,89.6
2023-02-22T00:14:11.026Z,89.7
2023-02-22T00:15:11.041Z,89.8
2023-02-22T00:16:11.094Z,89.8
2023-02-22T00:17:11.056Z,89.8
2023-02-22T00:18:11.058Z,89.6
2023-02-22T00:19:11.119Z,89.7
2023-02-22T00:20:11.081Z,89.6
2023-02-22T00:21:11.080Z,89.6
2023-02-22T00:22:11.102Z,89.6
2023-02-22T00:23:11.101Z,89.7
2023-02-22T00:24:11.117Z,89.7
2023-02-22T00:25:11.127Z,89.6
2023-02-22T00:26:11.181Z,89.4
2023-02-22T00:27:11.128Z,89.6
2023-02-22T00:28:11.296Z,89.5
2023-02-22T00:29:11.155Z,89.5
2023-02-22T00:30:11.300Z,89.6
2023-02-22T00:31:11.168Z,89.5
2023-02-22T00:32:11.464Z,89.5
2023-02-22T00:33:11.178Z,89.6
2023-02-22T00:34:11.185Z,89.6
2023-02-22T00:35:11.202Z,89.6
2023-02-22T00:36:11.242Z,89.6
2023-02-22T00:37:11.218Z,89.5
2023-02-22T00:38:11.219Z,89.6
2023-02-22T00:39:11.229Z,89.7
2023-02-22T00:40:11.252Z,89.7
2023-02-22T00:41:11.231Z,89.7
2023-02-22T00:42:11.278Z,89.6
2023-02-22T00:43:11.357Z,89.5
2023-02-22T00:44:11.261Z,89.5
2023-02-22T00:45:11.265Z,89.6
2023-02-22T00:46:11.464Z,89.5
2023-02-22T00:47:11.291Z,89.6
2023-02-22T00:48:11.316Z,89.6
2023-02-22T00:49:11.284Z,89.6
2023-02-22T00:50:11.295Z,89.7
2023-02-22T00:51:11.305Z,89.7
2023-02-22T00:52:11.323Z,89.8
2023-02-22T00:53:11.328Z,89.8
2023-02-22T00:54:11.330Z,89.8
2023-02-22T00:55:11.329Z,89.7
2023-02-22T00:56:11.329Z,89.6
2023-02-22T00:57:11.361Z,89.7
2023-02-22T00:58:11.347Z,89.5
2023-02-22T00:59:11.352Z,89.5
2023-02-22T01:00:11.377Z,89.5
2023-02-22T01:01:11.521Z,89.5
2023-02-22T01:02:11.760Z,89.6
2023-02-22T01:03:11.792Z,89.4
2023-02-22T01:04:11.541Z,89.6
2023-02-22T01:05:11.467Z,89.4
2023-02-22T01:06:11.398Z,89.5
2023-02-22T01:07:11.406Z,89.5
2023-02-22T01:08:11.420Z,89.5
2023-02-22T01:09:11.421Z,89.5
2023-02-22T01:10:11.452Z,89.2
2023-02-22T01:11:11.425Z,89.3
2023-02-22T01:12:11.424Z,89.2
2023-02-22T01:13:11.451Z,89.1
2023-02-22T01:14:11.452Z,89.2
2023-02-22T01:15:11.485Z,89.1
2023-02-22T01:16:11.758Z,89.2
2023-02-22T01:17:11.484Z,89.2
2023-02-22T01:18:11.474Z,89.3
2023-02-22T01:19:11.486Z,89.2
2023-02-22T01:20:11.485Z,89.2
2023-02-22T01:21:11.510Z,89.4
2023-02-22T01:22:11.532Z,89.2
2023-02-22T01:23:11.510Z,89.4
2023-02-22T01:24:11.527Z,89.4
2023-02-22T01:25:11.534Z,89.4
2023-02-22T01:26:11.535Z,89.3
2023-02-22T01:27:11.548Z,89.4
2023-02-22T01:28:11.549Z,89.4
2023-02-22T01:29:11.549Z,89.3
2023-02-22T01:30:11.639Z,89.4
2023-02-22T01:31:11.852Z,89.3
2023-02-22T01:32:11.678Z,89.2
2023-02-22T01:33:11.584Z,89.4
2023-02-22T01:34:11.600Z,89.4
2023-02-22T01:35:11.632Z,89.3
2023-02-22T01:36:11.798Z,89.4
2023-02-22T01:37:11.624Z,89.3
2023-02-22T01:38:11.635Z,89.5
2023-02-22T01:39:11.650Z,89.4
2023-02-22T01:40:11.646Z,89.4
2023-02-22T01:41:11.640Z,89.2
2023-02-22T01:42:11.650Z,89.3
2023-02-22T01:43:11.664Z,89.2
2023-02-22T01:44:11.677Z,89.2
2023-02-22T01:45:11.684Z,89.3
2023-02-22T01:46:11.913Z,89.0
2023-02-22T02:04:12.597Z,89.4
2023-02-22T02:05:12.043Z,89.4
2023-02-22T02:06:11.926Z,89.4
2023-02-22T02:07:11.851Z,89.2
2023-02-22T02:08:11.904Z,89.3
2023-02-22T02:09:11.881Z,89.2
2023-02-22T02:10:11.878Z,89.2
2023-02-22T02:11:11.881Z,89.2
2023-02-22T02:12:11.930Z,89.1
2023-02-22T02:13:11.888Z,89.1
2023-02-22T02:14:11.911Z,89.2
2023-02-22T02:15:11.898Z,89.2
2023-02-22T02:16:11.941Z,89.1
2023-02-22T02:17:11.956Z,89.1
2023-02-22T02:18:11.981Z,89.2
2023-02-22T02:19:11.947Z,89.1
2023-02-22T02:20:11.938Z,89.1
2023-02-22T02:21:11.984Z,89.0
2023-02-22T02:22:11.954Z,89.0
2023-02-22T02:23:11.972Z,89.0
2023-02-22T02:24:11.983Z,89.2
2023-02-22T02:25:11.984Z,89.2
2023-02-22T02:26:12.030Z,89.2
2023-02-22T02:27:12.057Z,89.2
2023-02-22T02:28:12.001Z,89.1
2023-02-22T02:29:11.998Z,89.0
2023-02-22T02:30:12.231Z,88.8
2023-02-22T02:31:12.015Z,88.9
2023-02-22T02:32:12.742Z,89.0
2023-02-22T02:33:12.043Z,89.1
2023-02-22T02:34:12.038Z,88.8
2023-02-22T02:35:12.060Z,88.9
2023-02-22T02:36:12.282Z,88.9
2023-02-22T02:37:12.073Z,88.9
2023-02-22T02:38:12.087Z,88.9
2023-02-22T02:39:12.070Z,88.9
2023-02-22T02:40:12.203Z,88.9
2023-02-22T02:41:12.088Z,88.7
2023-02-22T02:42:12.116Z,88.9
2023-02-22T02:43:12.102Z,88.8
2023-02-22T02:44:12.115Z,88.9
2023-02-22T02:45:12.115Z,88.7
2023-02-22T02:46:12.138Z,88.8
2023-02-22T02:47:12.389Z,88.8
2023-02-22T02:48:12.137Z,88.7
2023-02-22T02:49:12.149Z,88.8
2023-02-22T02:50:12.147Z,88.7
2023-02-22T02:51:12.161Z,88.9
2023-02-22T02:52:12.165Z,88.8
2023-02-22T02:53:12.169Z,88.8
2023-02-22T02:54:12.186Z,88.9
2023-02-22T02:55:12.188Z,88.8
2023-02-22T02:56:12.193Z,88.8
2023-02-22T02:57:12.212Z,88.9
2023-02-22T02:58:12.202Z,88.9
2023-02-22T02:59:12.205Z,88.8
2023-02-22T03:00:12.214Z,88.7
2023-02-22T03:01:12.287Z,88.8
2023-02-22T03:02:12.236Z,88.6
2023-02-22T03:03:12.238Z,88.7
2023-02-22T03:04:12.250Z,88.8
2023-02-22T03:05:12.259Z,88.8
2023-02-22T03:06:12.284Z,88.7
2023-02-22T03:07:12.412Z,88.6
2023-02-22T03:08:12.280Z,88.6
2023-02-22T03:09:12.287Z,88.6
2023-02-22T03:10:12.294Z,88.7
2023-02-22T03:11:12.293Z,88.6
2023-02-22T03:12:12.300Z,88.6
2023-02-22T03:13:12.320Z,88.6
2023-02-22T03:14:12.339Z,88.5
2023-02-22T03:15:12.326Z,88.6
2023-02-22T03:16:12.440Z,88.7
2023-02-22T03:17:12.345Z,88.6
2023-02-22T03:18:12.343Z,88.6
2023-02-22T03:19:12.352Z,88.4
2023-02-22T03:20:12.367Z,88.5
2023-02-22T03:21:12.371Z,88.6
2023-02-22T03:22:12.398Z,88.6
2023-02-22T03:23:12.399Z,88.7
2023-02-22T03:24:12.540Z,88.7
2023-02-22T03:25:12.395Z,88.7
2023-02-22T03:26:12.412Z,88.7
2023-02-22T03:27:12.470Z,88.7
2023-02-22T03:28:12.434Z,88.8
2023-02-22T03:29:12.554Z,88.8
2023-02-22T03:30:12.786Z,88.8
2023-02-22T03:31:12.685Z,88.6
2023-02-22T03:32:12.688Z,88.7
2023-02-22T03:33:12.515Z,88.8
2023-02-22T03:34:12.462Z,88.8
2023-02-22T03:35:12.474Z,88.8
2023-02-22T03:36:12.487Z,88.7
2023-02-22T03:37:12.474Z,88.7
2023-02-22T03:38:12.510Z,88.7
2023-02-22T03:39:12.528Z,88.7
2023-02-22T03:40:12.509Z,88.8
2023-02-22T03:41:12.532Z,88.8
2023-02-22T03:42:12.516Z,88.7
2023-02-22T03:43:12.544Z,88.7
2023-02-22T03:44:12.546Z,88.6
2023-02-22T03:45:12.539Z,88.7
2023-02-22T03:46:12.726Z,88.9
2023-02-22T03:47:12.556Z,88.8
2023-02-22T03:48:12.562Z,88.8
2023-02-22T03:49:12.583Z,88.7
2023-02-22T03:50:12.588Z,88.8
2023-02-22T03:51:16.987Z,88.9
2023-02-22T03:52:12.587Z,88.9
2023-02-22T03:53:12.597Z,88.8
2023-02-22T03:54:12.609Z,88.9
2023-02-22T03:55:12.678Z,88.9
2023-02-22T03:56:12.617Z,88.9
2023-02-22T03:57:12.632Z,88.9
2023-02-22T03:58:12.617Z,88.8
2023-02-22T03:59:12.631Z,88.6
2023-02-22T04:00:12.689Z,88.7
2023-02-22T04:01:12.642Z,88.9
2023-02-22T04:02:12.650Z,88.8
2023-02-22T04:03:12.818Z,88.8
2023-02-22T04:04:12.674Z,88.9
2023-02-22T04:05:12.663Z,88.9
2023-02-22T04:06:12.699Z,88.9
2023-02-22T04:07:12.690Z,88.9
2023-02-22T04:08:12.706Z,88.9
2023-02-22T04:09:12.709Z,88.9
2023-02-22T04:10:12.785Z,89.0
2023-02-22T04:11:12.733Z,89.0
2023-02-22T04:12:12.746Z,89.0
2023-02-22T04:13:12.743Z,89.1
2023-02-22T04:14:12.760Z,89.1
2023-02-22T04:15:12.752Z,89.1
2023-02-22T04:16:12.973Z,89.1
2023-02-22T04:17:12.770Z,89.0
2023-02-22T04:18:12.776Z,89.1
2023-02-22T04:19:12.807Z,89.1
2023-02-22T04:20:12.809Z,89.1
2023-02-22T04:21:12.815Z,89.3
2023-02-22T04:22:12.812Z,89.3
2023-02-22T04:23:12.829Z,89.3
2023-02-22T04:24:12.842Z,89.3
2023-02-22T04:25:12.826Z,89.3
2023-02-22T04:26:12.841Z,89.0
2023-02-22T04:27:12.854Z,89.1
2023-02-22T04:28:12.848Z,89.2
2023-02-22T04:29:12.880Z,89.3
2023-02-22T04:30:13.015Z,89.2
2023-02-22T04:31:13.027Z,89.1
2023-02-22T04:32:13.173Z,89.2
2023-02-22T04:33:12.909Z,89.1
2023-02-22T04:34:12.892Z,89.2
2023-02-22T04:35:12.907Z,89.3
2023-02-22T04:36:12.914Z,89.3
2023-02-22T04:37:12.964Z,89.3
2023-02-22T04:38:12.932Z,89.2
2023-02-22T04:39:12.938Z,89.1
2023-02-22T04:40:12.955Z,89.3
2023-02-22T04:41:12.960Z,89.3
2023-02-22T04:42:12.962Z,89.3
2023-02-22T04:43:12.963Z,89.3
2023-02-22T04:44:13.001Z,89.4
2023-02-22T04:45:12.987Z,89.3
2023-02-22T04:46:13.091Z,89.2
2023-02-22T04:47:12.997Z,89.3
2023-02-22T04:48:13.008Z,89.4
2023-02-22T04:49:13.009Z,89.2
2023-02-22T04:50:13.077Z,89.4
2023-02-22T04:51:13.038Z,89.4
2023-02-22T04:52:13.039Z,89.4
2023-02-22T04:53:13.040Z,89.5
2023-02-22T04:54:13.093Z,89.3
2023-02-22T04:55:13.063Z,89.4
2023-02-22T04:56:13.086Z,89.3
2023-02-22T04:57:13.074Z,89.2
2023-02-22T04:58:13.097Z,89.3
2023-02-22T04:59:13.106Z,89.2
2023-02-22T05:00:13.104Z,89.3
2023-02-22T05:01:13.130Z,89.4
2023-02-22T05:02:13.110Z,89.4
2023-02-22T05:03:13.140Z,89.3
2023-02-22T05:04:13.444Z,89.4
2023-02-22T05:05:13.144Z,89.3
2023-02-22T05:06:13.146Z,89.3
2023-02-22T05:07:13.178Z,89.4
2023-02-22T05:08:13.165Z,89.3
2023-02-22T05:09:13.165Z,89.3
2023-02-22T05:10:13.184Z,89.3
2023-02-22T05:11:13.181Z,89.4
2023-02-22T05:12:13.202Z,89.4
2023-02-22T05:13:13.210Z,89.4
2023-02-22T05:14:20.893Z,89.4
2023-02-22T05:15:13.223Z,89.4
2023-02-22T05:16:13.396Z,89.4
2023-02-22T05:17:13.240Z,89.4
2023-02-22T05:18:13.252Z,89.4
2023-02-22T05:19:13.283Z,89.4
2023-02-22T05:20:13.267Z,89.4
2023-02-22T05:21:13.274Z,89.5
2023-02-22T05:22:13.307Z,89.5
2023-02-22T05:23:13.328Z,89.5
2023-02-22T05:24:13.301Z,89.4
2023-02-22T05:25:13.312Z,89.6
2023-02-22T05:26:13.317Z,89.6
2023-02-22T05:27:13.314Z,89.6
2023-02-22T05:28:13.326Z,89.6
2023-02-22T05:29:13.380Z,89.5
2023-02-22T05:30:13.515Z,89.6
2023-02-22T05:31:13.437Z,89.7
2023-02-22T05:32:13.475Z,89.7
2023-02-22T05:33:13.427Z,89.7
2023-02-22T05:34:13.374Z,89.7
2023-02-22T05:35:13.373Z,89.5
2023-02-22T05:36:13.390Z,89.6
2023-02-22T05:37:13.401Z,89.6
2023-02-22T05:38:13.403Z,89.5
2023-02-22T05:39:13.627Z,89.4
2023-02-22T05:40:13.417Z,89.5
2023-02-22T05:41:13.428Z,89.4
2023-02-22T05:42:13.477Z,89.4
2023-02-22T05:43:13.474Z,89.5
2023-02-22T05:44:13.464Z,89.5
2023-02-22T05:45:13.461Z,89.4
2023-02-22T05:46:13.570Z,89.6
2023-02-22T05:47:13.488Z,89.6
2023-02-22T05:48:13.512Z,89.6
2023-02-22T05:49:13.520Z,89.6
2023-02-22T05:50:13.549Z,89.7
2023-02-22T05:51:13.518Z,89.7
2023-02-22T05:52:13.531Z,89.7
2023-02-22T05:53:13.537Z,89.7
2023-02-22T05:54:13.535Z,89.8
2023-02-22T05:55:13.553Z,89.9
2023-02-22T05:56:13.573Z,89.8
2023-02-22T05:57:13.604Z,89.8
2023-02-22T05:58:13.613Z,89.8
2023-02-22T05:59:13.576Z,89.9
2023-02-22T06:00:13.603Z,89.9
2023-02-22T06:01:13.587Z,89.8
2023-02-22T06:02:13.784Z,89.8
2023-02-22T06:03:13.680Z,89.9
2023-02-22T06:04:13.628Z,90.0
2023-02-22T06:05:13.805Z,90.0
2023-02-22T06:06:13.636Z,90.0
2023-02-22T06:07:13.651Z,90.0
2023-02-22T06:08:13.651Z,90.0
2023-02-22T06:09:13.674Z,90.0
2023-02-22T06:10:13.661Z,90.1
2023-02-22T06:11:13.667Z,90.1
2023-02-22T06:12:13.670Z,90.1
2023-02-22T06:13:13.698Z,90.1
2023-02-22T06:14:13.710Z,90.1
2023-02-22T06:15:13.711Z,89.8
2023-02-22T06:16:13.937Z,90.0
2023-02-22T06:17:13.773Z,90.0
2023-02-22T06:18:13.745Z,90.0
2023-02-22T06:19:13.745Z,90.0
2023-02-22T06:20:13.754Z,89.9
2023-02-22T06:21:13.772Z,89.9
2023-02-22T06:22:13.764Z,89.9
2023-02-22T06:23:13.769Z,89.7
2023-02-22T06:24:13.772Z,89.8
2023-02-22T06:25:13.786Z,89.8
2023-02-22T06:26:13.789Z,89.8
2023-02-22T06:27:13.800Z,89.8
2023-02-22T06:28:13.799Z,89.8
2023-02-22T06:29:13.814Z,89.8
2023-02-22T06:30:13.993Z,89.6
2023-02-22T06:31:13.997Z,89.7
2023-02-22T06:32:14.013Z,89.7
2023-02-22T06:33:13.845Z,89.8
2023-02-22T06:34:13.843Z,89.8
2023-02-22T06:35:13.850Z,89.8
2023-02-22T06:36:14.008Z,89.8
2023-02-22T06:37:13.879Z,89.8
2023-02-22T06:38:13.884Z,89.8
2023-02-22T06:39:13.875Z,89.8
2023-02-22T06:40:13.884Z,89.8
2023-02-22T06:41:14.147Z,89.7
2023-02-22T06:42:13.993Z,89.6
2023-02-22T06:43:13.905Z,89.5
2023-02-22T06:44:13.911Z,89.6
2023-02-22T06:45:13.918Z,89.6
2023-02-22T06:46:13.934Z,89.7
2023-02-22T06:47:13.935Z,89.8
2023-02-22T06:48:13.965Z,89.7
2023-02-22T06:49:13.954Z,89.7
2023-02-22T06:50:13.968Z,89.6
2023-02-22T06:51:14.077Z,89.6
2023-02-22T06:52:13.990Z,89.8
2023-02-22T06:53:13.990Z,89.8
2023-02-22T06:54:14.001Z,89.9
2023-02-22T06:55:14.014Z,89.7
2023-02-22T06:56:14.030Z,89.8
2023-02-22T06:57:14.024Z,89.8
2023-02-22T06:58:14.034Z,89.6
2023-02-22T06:59:14.029Z,89.6
2023-02-22T07:00:14.039Z,89.5
2023-02-22T07:01:15.126Z,89.6
2023-02-22T07:02:14.099Z,89.7
2023-02-22T07:03:14.236Z,89.7
2023-02-22T07:04:14.088Z,89.6
2023-02-22T07:05:14.087Z,89.7
2023-02-22T07:06:14.103Z,89.7
2023-02-22T07:07:14.113Z,89.6
2023-02-22T07:08:14.104Z,89.7
2023-02-22T07:09:14.123Z,89.7
2023-02-22T07:10:14.118Z,89.7
2023-02-22T07:11:14.297Z,89.8
2023-02-22T07:12:14.133Z,89.8
2023-02-22T07:13:14.142Z,89.8
2023-02-22T07:14:14.150Z,89.7
2023-02-22T07:15:14.182Z,89.7
2023-02-22T07:16:14.339Z,89.7
2023-02-22T07:17:14.169Z,89.8
2023-02-22T07:18:14.221Z,89.8
2023-02-22T07:19:14.201Z,89.8
2023-02-22T07:20:14.233Z,89.7
2023-02-22T07:21:14.306Z,89.7
2023-02-22T07:22:14.216Z,89.7
2023-02-22T07:23:14.226Z,89.5
2023-02-22T07:24:14.232Z,89.6
2023-02-22T07:25:14.250Z,89.6
2023-02-22T07:26:14.273Z,89.6
2023-02-22T07:27:14.277Z,89.6
2023-02-22T07:28:14.260Z,89.5
2023-02-22T07:29:14.273Z,89.5
2023-02-22T07:30:14.389Z,89.4
2023-02-22T07:31:14.780Z,89.4
2023-02-22T07:32:14.712Z,89.4
2023-02-22T07:33:14.692Z,89.5
2023-02-22T07:34:14.455Z,89.5
2023-02-22T07:35:14.322Z,89.5
2023-02-22T07:36:14.348Z,89.5
2023-02-22T07:37:14.350Z,89.5
2023-02-22T07:38:14.365Z,89.4
2023-02-22T07:39:14.366Z,89.5
2023-02-22T07:40:14.375Z,89.4
2023-02-22T07:41:15.453Z,89.5
2023-02-22T07:42:14.417Z,89.4
2023-02-22T07:43:14.415Z,89.3
2023-02-22T07:44:14.428Z,89.2
2023-02-22T07:45:14.427Z,89.2
2023-02-22T07:46:14.497Z,89.1
2023-02-22T07:47:14.439Z,89.1
2023-02-22T07:48:17.845Z,88.9
2023-02-22T07:49:14.456Z,89.0
2023-02-22T07:50:14.494Z,89.0
2023-02-22T07:51:15.277Z,89.0
2023-02-22T07:52:14.527Z,89.0
2023-02-22T07:53:14.515Z,89.0
2023-02-22T07:54:14.539Z,89.2
2023-02-22T07:55:14.524Z,89.2
2023-02-22T07:56:14.564Z,89.2
2023-02-22T07:57:14.546Z,89.1
2023-02-22T07:58:14.568Z,89.0
2023-02-22T07:59:14.695Z,89.1
2023-02-22T08:00:14.683Z,89.1
2023-02-22T08:01:14.584Z,88.9
2023-02-22T08:02:14.635Z,88.9
2023-02-22T08:03:14.739Z,88.8
2023-02-22T08:04:14.618Z,88.7
2023-02-22T08:05:14.605Z,88.6
2023-02-22T08:06:14.649Z,88.6
2023-02-22T08:07:14.647Z,88.4
2023-02-22T08:08:14.857Z,88.3
2023-02-22T08:09:14.861Z,88.2
2023-02-22T08:10:14.673Z,88.2
2023-02-22T08:11:15.649Z,87.8
2023-02-22T08:12:14.667Z,87.6
2023-02-22T08:13:14.752Z,87.6
2023-02-22T08:14:14.693Z,87.5
2023-02-22T08:15:14.707Z,87.3
2023-02-22T08:16:14.711Z,87.1
2023-02-22T08:17:14.850Z,87.2
2023-02-22T08:18:14.718Z,87.3
2023-02-22T08:19:14.754Z,87.2
2023-02-22T08:20:14.754Z,87.2
2023-02-22T08:21:15.666Z,86.9
2023-02-22T08:22:14.758Z,86.8
2023-02-22T08:23:14.757Z,86.6
2023-02-22T08:24:14.800Z,86.4
2023-02-22T08:25:14.994Z,86.3
2023-02-22T08:26:14.835Z,86.3
2023-02-22T08:27:14.830Z,86.3
2023-02-22T08:28:14.818Z,86.1
2023-02-22T08:29:14.834Z,85.9
2023-02-22T08:30:14.893Z,85.8
2023-02-22T08:31:15.618Z,85.6
2023-02-22T08:32:15.238Z,85.5
2023-02-22T08:33:15.271Z,85.6
2023-02-22T08:34:14.876Z,85.6
2023-02-22T08:35:14.899Z,85.5
2023-02-22T08:36:14.903Z,85.3
2023-02-22T08:37:14.891Z,85.4
2023-02-22T08:38:14.906Z,85.5
2023-02-22T08:39:14.909Z,85.4
2023-02-22T08:40:15.269Z,85.4
2023-02-22T08:41:15.736Z,85.4
2023-02-22T08:42:14.940Z,85.3
2023-02-22T08:43:14.952Z,85.3
2023-02-22T08:44:14.954Z,85.2
2023-02-22T08:45:14.954Z,85.3
2023-02-22T08:46:15.150Z,85.1
2023-02-22T08:47:14.966Z,85.2
2023-02-22T08:48:15.006Z,85.2
2023-02-22T08:49:15.000Z,85.1
2023-02-22T08:50:14.992Z,85.1
2023-02-22T08:51:15.789Z,85.3
2023-02-22T08:52:15.028Z,85.3
2023-02-22T08:53:15.024Z,85.3
2023-02-22T08:54:15.011Z,85.0
2023-02-22T08:55:15.032Z,85.1
2023-02-22T08:56:15.037Z,85.1
2023-02-22T08:57:15.039Z,85.1
2023-02-22T08:58:15.272Z,85.0
2023-02-22T08:59:15.084Z,85.0
2023-02-22T09:00:15.062Z,84.5
2023-02-22T09:01:33.269Z,84.3
2023-02-22T09:02:15.182Z,84.2
2023-02-22T09:03:15.455Z,84.2
2023-02-22T09:04:15.160Z,84.1
2023-02-22T09:05:15.129Z,83.8
2023-02-22T09:06:15.316Z,83.9
2023-02-22T09:07:15.136Z,83.7
2023-02-22T09:08:15.134Z,83.7
2023-02-22T09:09:15.135Z,83.5
2023-02-22T09:10:15.151Z,83.4
2023-02-22T09:11:15.858Z,83.4
2023-02-22T09:12:15.169Z,83.5
2023-02-22T09:13:15.192Z,83.5
2023-02-22T09:14:15.195Z,83.2
2023-02-22T09:15:15.209Z,83.2
2023-02-22T09:16:15.313Z,83.2
2023-02-22T09:17:15.214Z,83.0
2023-02-22T09:18:15.258Z,82.9
2023-02-22T09:19:15.258Z,82.8
2023-02-22T09:20:15.284Z,82.9
2023-02-22T09:21:16.606Z,82.8
2023-02-22T09:22:15.280Z,82.7
2023-02-22T09:23:15.273Z,82.5
2023-02-22T09:24:15.321Z,82.4
2023-02-22T09:25:18.242Z,82.3
2023-02-22T09:26:15.350Z,81.8
2023-02-22T09:27:15.314Z,81.9
2023-02-22T09:28:15.339Z,81.7
2023-02-22T09:29:15.329Z,81.2
2023-02-22T09:30:15.476Z,81.0
2023-02-22T09:31:16.771Z,80.6
2023-02-22T09:32:15.930Z,80.3
2023-02-22T09:33:15.891Z,80.4
2023-02-22T09:34:15.390Z,80.2
2023-02-22T09:35:15.389Z,80.4
2023-02-22T09:36:16.484Z,80.2
2023-02-22T09:37:15.412Z,80.2
2023-02-22T09:38:15.411Z,80.1
2023-02-22T09:39:15.480Z,80.1
2023-02-22T09:40:15.404Z,80.2
2023-02-22T09:41:16.749Z,80.2
2023-02-22T09:42:15.438Z,80.2
2023-02-22T09:43:15.460Z,80.3
2023-02-22T09:44:15.491Z,80.3
2023-02-22T09:45:15.502Z,80.1
2023-02-22T09:46:16.618Z,80.2
2023-02-22T09:47:15.638Z,79.9
2023-02-22T09:48:22.846Z,80.1
2023-02-22T09:49:15.578Z,80.4
2023-02-22T09:50:15.598Z,80.4
2023-02-22T09:51:15.538Z,80.1
2023-02-22T09:52:15.547Z,80.2
2023-02-22T09:53:15.569Z,80.1
2023-02-22T09:54:15.563Z,80.2
2023-02-22T09:55:15.558Z,80.2
2023-02-22T09:56:17.050Z,80.2
2023-02-22T09:57:15.585Z,80.3
2023-02-22T09:58:15.584Z,80.2
2023-02-22T09:59:15.594Z,80.0
2023-02-22T10:00:15.609Z,80.1
2023-02-22T10:01:15.629Z,80.0
2023-02-22T10:02:15.622Z,80.0
2023-02-22T10:03:15.662Z,80.0
2023-02-22T10:04:15.637Z,80.1
2023-02-22T10:05:15.785Z,80.0
2023-02-22T10:06:16.845Z,80.0
2023-02-22T10:07:15.679Z,80.0
2023-02-22T10:08:15.684Z,80.1
2023-02-22T10:09:15.707Z,80.2
2023-02-22T10:10:15.721Z,80.2
2023-02-22T10:11:15.709Z,80.4
2023-02-22T10:12:15.728Z,80.3
2023-02-22T10:13:15.727Z,80.1
2023-02-22T10:14:15.749Z,80.1
2023-02-22T10:15:15.750Z,80.1
2023-02-22T10:16:17.077Z,80.1
2023-02-22T10:17:15.789Z,80.2
2023-02-22T10:18:15.781Z,80.1
2023-02-22T10:19:15.827Z,80.0
2023-02-22T10:20:15.831Z,79.9
2023-02-22T10:21:15.801Z,79.7
2023-02-22T10:22:15.811Z,79.8
2023-02-22T10:23:15.834Z,79.8
2023-02-22T10:24:15.825Z,79.8
2023-02-22T10:25:15.851Z,79.7
2023-02-22T10:26:17.590Z,79.2
2023-02-22T10:27:15.861Z,79.3
2023-02-22T10:28:15.890Z,79.0
2023-02-22T10:29:15.872Z,78.9
2023-02-22T10:30:28.062Z,78.7
2023-02-22T10:31:16.274Z,78.7
2023-02-22T10:32:16.325Z,78.7
2023-02-22T10:33:15.938Z,78.8
2023-02-22T10:34:15.946Z,78.6
2023-02-22T10:35:15.942Z,78.4
2023-02-22T10:36:17.200Z,78.3
2023-02-22T10:37:16.098Z,78.4
2023-02-22T10:38:15.967Z,77.9
2023-02-22T10:39:16.079Z,78.3
2023-02-22T10:40:15.996Z,78.3
2023-02-22T10:41:17.691Z,77.9
2023-02-22T10:42:16.008Z,77.8
2023-02-22T10:43:16.016Z,78.0
2023-02-22T10:44:16.032Z,77.7
2023-02-22T10:45:16.027Z,78.0
2023-02-22T10:46:17.777Z,78.0
2023-02-22T10:47:21.604Z,78.1
2023-02-22T10:48:16.061Z,78.1
2023-02-22T10:49:16.072Z,78.0
2023-02-22T10:50:16.119Z,78.2
2023-02-22T10:51:16.173Z,78.1
2023-02-22T10:52:16.118Z,78.3
2023-02-22T10:53:16.114Z,78.3
2023-02-22T10:54:16.123Z,78.1
2023-02-22T10:55:16.539Z,78.1
2023-02-22T10:56:17.563Z,78.1
2023-02-22T10:57:16.154Z,78.3
2023-02-22T10:58:16.170Z,78.5
2023-02-22T10:59:16.175Z,78.7
2023-02-22T11:00:16.212Z,78.6
2023-02-22T11:01:17.234Z,78.7
2023-02-22T11:02:16.201Z,78.7
2023-02-22T11:03:16.213Z,78.6
2023-02-22T11:04:16.254Z,78.8
2023-02-22T11:05:16.379Z,78.6
2023-02-22T11:06:17.256Z,78.3
2023-02-22T11:07:16.260Z,78.4
2023-02-22T11:08:16.276Z,78.3
2023-02-22T11:09:16.270Z,78.2
2023-02-22T11:10:16.384Z,78.0
2023-02-22T11:11:17.435Z,77.7
2023-02-22T11:12:16.341Z,77.7
2023-02-22T11:13:16.292Z,77.3
2023-02-22T11:14:16.360Z,77.5
2023-02-22T11:15:16.316Z,77.2
2023-02-22T11:16:16.465Z,77.1
2023-02-22T11:17:16.334Z,77.0
2023-02-22T11:18:16.330Z,77.0
2023-02-22T11:19:16.346Z,76.9
2023-02-22T11:20:16.543Z,76.8
2023-02-22T11:21:17.363Z,76.9
2023-02-22T11:22:16.408Z,77.0
2023-02-22T11:23:16.527Z,76.6
2023-02-22T11:25:16.579Z,76.4
2023-02-22T11:26:16.418Z,76.4
2023-02-22T11:27:16.426Z,76.6
2023-02-22T11:28:16.447Z,76.6
2023-02-22T11:29:16.456Z,76.4
2023-02-22T11:30:16.984Z,76.8
2023-02-22T11:31:18.195Z,76.6
2023-02-22T11:32:16.785Z,76.7
2023-02-22T11:33:16.511Z,76.7
2023-02-22T11:34:16.697Z,76.7
2023-02-22T11:35:16.515Z,76.8
2023-02-22T11:36:16.533Z,77.2
2023-02-22T11:37:16.542Z,77.1
2023-02-22T11:38:16.553Z,76.7
2023-02-22T11:39:16.650Z,76.6
2023-02-22T11:40:16.568Z,76.8
2023-02-22T11:41:18.329Z,76.5
2023-02-22T11:42:16.588Z,76.7
2023-02-22T11:43:16.651Z,76.6
2023-02-22T11:44:16.610Z,76.5
2023-02-22T11:45:16.621Z,76.6
2023-02-22T11:46:16.837Z,76.6
2023-02-22T11:47:16.644Z,76.7
2023-02-22T11:48:16.641Z,76.6
2023-02-22T11:49:16.657Z,76.7
2023-02-22T11:50:16.678Z,76.8
2023-02-22T11:51:17.834Z,77.0
2023-02-22T11:52:16.709Z,77.1
2023-02-22T11:53:16.690Z,77.1
2023-02-22T11:54:16.731Z,77.0
2023-02-22T11:55:16.674Z,76.5
2023-02-22T11:56:37.494Z,75.9
2023-02-22T11:57:16.716Z,75.9
2023-02-22T11:58:16.710Z,75.7
2023-02-22T11:59:16.768Z,75.1
2023-02-22T12:00:16.991Z,75.0
2023-02-22T12:01:16.778Z,74.5
2023-02-22T12:02:16.738Z,73.8
2023-02-22T12:03:16.954Z,73.8
2023-02-22T12:04:17.218Z,73.5
2023-02-22T12:05:16.957Z,73.0
2023-02-22T12:06:17.903Z,72.3
2023-02-22T12:07:16.788Z,72.2
2023-02-22T12:08:20.436Z,72.1
2023-02-22T12:09:16.819Z,71.9
2023-02-22T12:10:16.813Z,71.9
2023-02-22T12:11:16.826Z,71.6
2023-02-22T12:12:16.833Z,71.4
2023-02-22T12:13:16.848Z,71.1
2023-02-22T12:14:16.857Z,70.6
2023-02-22T12:15:16.881Z,70.2
2023-02-22T12:16:18.314Z,69.9
2023-02-22T12:17:16.880Z,69.9
2023-02-22T12:18:16.920Z,69.7
2023-02-22T12:19:16.958Z,69.7
2023-02-22T12:20:16.933Z,69.2
2023-02-22T12:21:16.968Z,69.1
2023-02-22T12:22:16.946Z,68.9
2023-02-22T12:23:16.955Z,68.8
2023-02-22T12:24:16.951Z,69.1
2023-02-22T12:25:16.966Z,68.9
2023-02-22T12:26:17.815Z,68.7
2023-02-22T12:27:17.073Z,68.5
2023-02-22T12:28:25.609Z,68.5
2023-02-22T12:29:17.008Z,68.5
2023-02-22T12:30:17.414Z,68.7
2023-02-22T12:31:18.351Z,67.9
2023-02-22T12:32:17.418Z,67.6
2023-02-22T12:33:17.059Z,67.7
2023-02-22T12:34:17.511Z,67.5
2023-02-22T12:35:17.056Z,67.8
2023-02-22T12:36:17.088Z,67.9
2023-02-22T12:37:17.085Z,67.3
2023-02-22T12:38:17.082Z,67.2
2023-02-22T12:39:17.106Z,67.2
2023-02-22T12:40:17.112Z,67.6
2023-02-22T12:41:18.080Z,67.1
2023-02-22T12:42:17.124Z,67.4
2023-02-22T12:43:17.136Z,67.1
2023-02-22T12:44:17.136Z,66.7
2023-02-22T12:45:17.217Z,66.1
2023-02-22T12:46:17.290Z,65.8
2023-02-22T12:47:17.188Z,65.6
2023-02-22T12:48:17.188Z,65.5
2023-02-22T12:49:17.207Z,65.6
2023-02-22T12:50:17.207Z,65.7
2023-02-22T12:51:18.256Z,65.9
2023-02-22T12:52:22.468Z,65.7
2023-02-22T12:53:17.249Z,65.2
2023-02-22T12:54:17.255Z,65.4
2023-02-22T12:55:17.273Z,65.6
2023-02-22T12:56:17.296Z,65.9
2023-02-22T12:57:17.296Z,65.5
2023-02-22T12:58:17.304Z,65.2
2023-02-22T12:59:17.379Z,65.7
2023-02-22T13:00:17.341Z,65.9
2023-02-22T13:01:18.561Z,65.8
2023-02-22T13:02:17.342Z,65.6
2023-02-22T13:03:17.484Z,65.5
2023-02-22T13:04:21.768Z,65.5
2023-02-22T13:05:17.547Z,65.4
2023-02-22T13:06:17.420Z,65.6
2023-02-22T13:07:17.438Z,65.6
2023-02-22T13:08:17.426Z,66.2
2023-02-22T13:09:17.419Z,66.0
2023-02-22T13:10:17.420Z,65.7
2023-02-22T13:11:18.492Z,65.4
2023-02-22T13:12:17.450Z,65.5
2023-02-22T13:13:17.493Z,65.8
2023-02-22T13:14:17.545Z,65.4
2023-02-22T13:15:17.519Z,65.7
2023-02-22T13:16:25.610Z,65.4
2023-02-22T13:17:17.517Z,65.2
2023-02-22T13:18:17.668Z,65.2
2023-02-22T13:19:17.532Z,64.8
2023-02-22T13:20:17.538Z,64.9
2023-02-22T13:21:18.667Z,64.8
2023-02-22T13:22:17.570Z,64.7
2023-02-22T13:23:17.552Z,65.1
2023-02-22T13:24:17.609Z,64.7
2023-02-22T13:25:17.586Z,64.9
2023-02-22T13:26:17.593Z,65.0
2023-02-22T13:27:17.620Z,65.0
2023-02-22T13:28:17.596Z,65.1
2023-02-22T13:29:17.649Z,65.1
2023-02-22T13:30:17.920Z,65.1
2023-02-22T13:31:18.871Z,65.2
2023-02-22T13:32:17.969Z,65.1
2023-02-22T13:33:17.690Z,65.3
2023-02-22T13:34:17.701Z,65.3
2023-02-22T13:35:17.705Z,65.2
2023-02-22T13:36:19.351Z,65.4